createdAt,value
2018-12-01T00:00:29.237Z,0.71
2018-12-01T00:02:58.004Z,0.82
2018-12-01T00:05:26.688Z,0.76
2018-12-01T00:07:56.692Z,0.86
2018-12-01T00:10:25.293Z,0.96
2018-12-01T00:12:53.924Z,0.87
2018-12-01T00:15:24.730Z,0.75
2018-12-01T00:17:53.483Z,0.65
2018-12-01T00:20:24.391Z,0.72
2018-12-01T00:22:53.952Z,0.79
2018-12-01T00:25:22.534Z,0.93
2018-12-01T00:27:51.921Z,0.83
2018-12-01T00:30:23.385Z,0.95
2018-12-01T00:32:52.114Z,0.88
2018-12-01T00:35:20.741Z,0.98
2018-12-01T00:37:49.284Z,0.99
2018-12-01T00:40:20.601Z,0.82
2018-12-01T00:42:49.976Z,0.85
2018-12-01T00:45:21.238Z,0.88
2018-12-01T00:47:51.816Z,0.93
2018-12-01T00:50:22.280Z,1.00
2018-12-01T00:52:52.347Z,1.02
2018-12-01T00:55:21.079Z,0.98
2018-12-01T00:57:49.651Z,0.91
2018-12-01T01:00:20.927Z,0.91
2018-12-01T01:02:53.862Z,0.98
2018-12-01T01:05:25.211Z,0.97
2018-12-01T01:07:54.813Z,0.96
2018-12-01T01:10:25.286Z,0.89
2018-12-01T01:12:53.854Z,0.89
2018-12-01T01:15:22.398Z,0.84
2018-12-01T01:17:51.931Z,0.81
2018-12-01T01:20:23.572Z,0.87
2018-12-01T01:22:52.309Z,0.73
2018-12-01T01:25:20.896Z,0.90
2018-12-01T01:27:49.457Z,0.88
2018-12-01T01:30:22.777Z,0.96
2018-12-01T01:32:52.164Z,0.95
2018-12-01T01:35:20.763Z,0.90
2018-12-01T01:37:49.332Z,0.82
2018-12-01T01:40:18.405Z,0.90
2018-12-01T01:42:47.031Z,1.02
2018-12-01T01:45:16.798Z,1.09
2018-12-01T01:47:45.594Z,0.94
2018-12-01T01:50:17.333Z,0.94
2018-12-01T01:52:45.967Z,0.85
2018-12-01T01:55:15.280Z,0.95
2018-12-01T01:57:44.719Z,0.82
2018-12-01T02:00:18.256Z,0.89
2018-12-01T02:02:49.713Z,0.97
2018-12-01T02:05:20.335Z,1.13
2018-12-01T02:07:50.139Z,1.04
2018-12-01T02:10:20.732Z,1.01
2018-12-01T02:12:49.341Z,1.00
2018-12-01T02:15:17.916Z,1.03
2018-12-01T02:17:46.491Z,1.12
2018-12-01T02:20:17.106Z,0.97
2018-12-01T02:22:45.795Z,1.04
2018-12-01T02:25:15.652Z,0.96
2018-12-01T02:27:44.827Z,0.97
2018-12-01T02:30:18.349Z,1.15
2018-12-01T02:32:47.266Z,1.04
2018-12-01T02:35:18.018Z,1.03
2018-12-01T02:37:47.702Z,1.09
2018-12-01T02:40:16.295Z,1.11
2018-12-01T02:42:45.876Z,1.16
2018-12-01T02:45:25.758Z,1.01
2018-12-01T02:47:54.352Z,0.99
2018-12-01T02:50:24.155Z,1.09
2018-12-01T02:52:54.676Z,0.89
2018-12-01T02:55:23.272Z,0.95
2018-12-01T02:57:51.898Z,1.07
2018-12-01T03:00:21.465Z,0.95
2018-12-01T03:02:50.902Z,0.89
2018-12-01T03:05:20.474Z,0.94
2018-12-01T03:07:49.941Z,0.90
2018-12-01T03:10:20.972Z,0.97
2018-12-01T03:12:51.596Z,0.97
2018-12-01T03:15:20.741Z,1.04
2018-12-01T03:17:51.374Z,1.01
2018-12-01T03:20:21.012Z,1.04
2018-12-01T03:22:49.617Z,1.12
2018-12-01T03:25:19.178Z,1.17
2018-12-01T03:27:48.535Z,1.31
2018-12-01T03:30:19.672Z,1.29
2018-12-01T03:32:48.848Z,1.28
2018-12-01T03:35:17.663Z,1.19
2018-12-01T03:37:47.368Z,1.18
2018-12-01T03:40:16.680Z,1.20
2018-12-01T03:42:46.324Z,1.34
2018-12-01T03:45:16.824Z,1.17
2018-12-01T03:47:46.119Z,1.11
2018-12-01T03:50:21.472Z,0.97
2018-12-01T03:52:51.314Z,1.00
2018-12-01T03:55:30.486Z,0.95
2018-12-01T03:57:59.148Z,0.90
2018-12-01T04:00:30.390Z,0.96
2018-12-01T04:03:00.127Z,0.91
2018-12-01T04:05:28.789Z,0.96
2018-12-01T04:07:58.283Z,1.14
2018-12-01T04:10:27.686Z,1.24
2018-12-01T04:12:57.507Z,1.22
2018-12-01T04:15:27.236Z,1.31
2018-12-01T04:17:56.654Z,1.22
2018-12-01T04:20:26.123Z,1.24
2018-12-01T04:22:55.789Z,1.34
2018-12-01T04:25:25.415Z,1.31
2018-12-01T04:27:54.008Z,1.32
2018-12-01T04:30:23.769Z,1.38
2018-12-01T04:32:52.375Z,1.28
2018-12-01T04:35:22.813Z,1.36
2018-12-01T04:37:55.364Z,1.37
2018-12-01T04:40:24.304Z,1.34
2018-12-01T04:42:53.532Z,1.24
2018-12-01T04:45:22.171Z,1.24
2018-12-01T04:47:50.888Z,1.23
2018-12-01T04:50:20.346Z,1.08
2018-12-01T04:52:49.481Z,1.22
2018-12-01T04:55:19.903Z,1.18
2018-12-01T04:57:49.335Z,1.25
2018-12-01T05:00:19.787Z,1.12
2018-12-01T05:02:49.373Z,1.06
2018-12-01T05:05:19.878Z,1.08
2018-12-01T05:07:48.511Z,1.10
2018-12-01T05:10:18.973Z,1.24
2018-12-01T05:12:47.546Z,1.22
2018-12-01T05:15:18.853Z,1.27
2018-12-01T05:17:47.676Z,1.22
2018-12-01T05:20:17.435Z,1.31
2018-12-01T05:22:47.075Z,1.45
2018-12-01T05:25:15.691Z,1.44
2018-12-01T05:27:44.702Z,1.38
2018-12-01T05:30:15.210Z,1.22
2018-12-01T05:32:44.635Z,1.23
2018-12-01T05:35:18.201Z,1.37
2018-12-01T05:37:46.765Z,1.48
2018-12-01T05:40:15.519Z,1.21
2018-12-01T05:42:45.092Z,1.25
2018-12-01T05:45:19.600Z,1.16
2018-12-01T05:47:49.351Z,1.35
2018-12-01T05:50:22.516Z,1.21
2018-12-01T05:52:51.938Z,1.09
2018-12-01T05:55:21.435Z,1.13
2018-12-01T05:57:50.023Z,1.05
2018-12-01T06:00:18.880Z,1.14
2018-12-01T06:02:47.523Z,1.14
2018-12-01T06:05:16.082Z,1.19
2018-12-01T06:07:45.776Z,1.18
2018-12-01T06:10:18.482Z,1.21
2018-12-01T06:12:47.498Z,1.18
2018-12-01T06:15:16.833Z,1.17
2018-12-01T06:17:46.338Z,1.29
2018-12-01T06:20:17.184Z,1.19
2018-12-01T06:22:45.829Z,1.21
2018-12-01T06:25:16.451Z,1.26
2018-12-01T06:27:45.873Z,1.18
2018-12-01T06:30:17.417Z,1.08
2018-12-01T06:32:47.322Z,0.98
2018-12-01T06:35:16.036Z,1.05
2018-12-01T06:37:46.635Z,0.99
2018-12-01T06:40:17.419Z,1.18
2018-12-01T06:42:46.031Z,1.17
2018-12-01T06:45:17.046Z,1.15
2018-12-01T06:47:46.588Z,1.39
2018-12-01T06:50:18.421Z,1.44
2018-12-01T06:52:47.851Z,1.38
2018-12-01T06:55:17.194Z,1.25
2018-12-01T06:57:47.379Z,1.28
2018-12-01T07:00:18.156Z,1.32
2018-12-01T07:02:48.112Z,1.33
2018-12-01T07:05:17.363Z,1.35
2018-12-01T07:07:45.966Z,1.27
2018-12-01T07:10:18.634Z,1.39
2018-12-01T07:12:49.487Z,1.19
2018-12-01T07:15:21.503Z,1.19
2018-12-01T07:17:50.994Z,1.26
2018-12-01T07:20:19.845Z,1.49
2018-12-01T07:22:48.382Z,1.61
2018-12-01T07:25:17.972Z,1.62
2018-12-01T07:27:46.609Z,1.62
2018-12-01T07:30:15.659Z,1.65
2018-12-01T07:32:45.948Z,1.60
2018-12-01T07:35:15.216Z,1.56
2018-12-01T07:37:44.325Z,1.66
2018-12-01T07:40:15.349Z,1.61
2018-12-01T07:42:45.796Z,1.73
2018-12-01T07:45:15.966Z,1.78
2018-12-01T07:47:46.512Z,1.88
2018-12-01T07:50:18.069Z,1.76
2018-12-01T07:52:48.127Z,1.68
2018-12-01T07:55:16.729Z,1.69
2018-12-01T07:57:46.279Z,1.74
2018-12-01T08:00:15.965Z,1.84
2018-12-01T08:02:48.362Z,1.80
2018-12-01T08:05:17.981Z,1.72
2018-12-01T08:07:47.471Z,1.68
2018-12-01T08:10:17.119Z,1.65
2018-12-01T08:12:45.672Z,1.90
2018-12-01T08:15:17.250Z,1.75
2018-12-01T08:17:47.323Z,1.88
2018-12-01T08:20:17.625Z,1.96
2018-12-01T08:22:46.235Z,2.09
2018-12-01T08:25:18.952Z,2.13
2018-12-01T08:27:50.027Z,2.15
2018-12-01T08:30:22.229Z,2.21
2018-12-01T08:32:51.846Z,2.10
2018-12-01T08:35:21.336Z,2.28
2018-12-01T08:37:50.712Z,2.31
2018-12-01T08:40:22.184Z,2.22
2018-12-01T08:42:50.764Z,2.21
2018-12-01T08:45:19.302Z,2.27
2018-12-01T08:47:47.851Z,2.26
2018-12-01T08:50:19.261Z,2.39
2018-12-01T08:52:48.081Z,2.40
2018-12-01T08:55:18.821Z,2.50
2018-12-01T08:57:47.537Z,2.49
2018-12-01T09:00:22.072Z,2.56
2018-12-01T09:02:54.962Z,2.43
2018-12-01T09:05:23.528Z,2.62
2018-12-01T09:07:52.104Z,2.62
2018-12-01T09:10:21.502Z,2.85
2018-12-01T09:12:50.063Z,2.89
2018-12-01T09:15:19.572Z,2.92
2018-12-01T09:17:48.124Z,2.93
2018-12-01T09:20:17.561Z,2.95
2018-12-01T09:22:47.671Z,3.05
2018-12-01T09:25:19.130Z,3.31
2018-12-01T09:27:48.643Z,3.02
2018-12-01T09:30:21.471Z,3.20
2018-12-01T09:32:51.035Z,3.38
2018-12-01T09:35:27.319Z,3.41
2018-12-01T09:37:57.170Z,3.37
2018-12-01T09:40:26.597Z,3.45
2018-12-01T09:42:56.179Z,3.52
2018-12-01T09:45:26.198Z,3.36
2018-12-01T09:47:56.531Z,3.32
2018-12-01T09:50:25.998Z,3.38
2018-12-01T09:52:56.455Z,3.68
2018-12-01T09:55:28.229Z,3.94
2018-12-01T09:57:58.207Z,4.05
2018-12-01T10:00:28.625Z,4.12
2018-12-01T10:02:58.382Z,4.02
2018-12-01T10:05:26.999Z,4.05
2018-12-01T10:07:56.406Z,4.06
2018-12-01T10:10:25.064Z,4.05
2018-12-01T10:12:54.900Z,4.10
2018-12-01T10:15:25.754Z,4.22
2018-12-01T10:17:54.324Z,4.37
2018-12-01T10:20:30.061Z,4.43
2018-12-01T10:22:59.431Z,4.57
2018-12-01T10:25:28.053Z,4.72
2018-12-01T10:27:56.603Z,4.80
2018-12-01T10:30:25.161Z,4.81
2018-12-01T10:32:54.742Z,4.87
2018-12-01T10:35:24.237Z,4.98
2018-12-01T10:37:54.373Z,5.10
2018-12-01T10:40:22.923Z,5.26
2018-12-01T10:42:51.477Z,5.32
2018-12-01T10:45:20.778Z,5.46
2018-12-01T10:47:49.343Z,5.64
2018-12-01T10:50:20.886Z,5.67
2018-12-01T10:52:50.759Z,5.82
2018-12-01T10:55:27.318Z,5.73
2018-12-01T10:58:01.902Z,5.77
2018-12-01T11:00:35.705Z,5.93
2018-12-01T11:03:06.529Z,6.00
2018-12-01T11:05:36.995Z,6.24
2018-12-01T11:08:07.492Z,6.41
2018-12-01T11:10:37.138Z,6.18
2018-12-01T11:13:06.678Z,6.33
2018-12-01T11:15:35.260Z,6.37
2018-12-01T11:18:03.831Z,6.35
2018-12-01T11:20:32.509Z,6.24
2018-12-01T11:23:01.037Z,6.13
2018-12-01T11:25:30.607Z,6.21
2018-12-01T11:27:59.148Z,6.16
2018-12-01T11:30:27.882Z,6.15
2018-12-01T11:32:56.384Z,6.21
2018-12-01T11:35:25.159Z,6.32
2018-12-01T11:37:53.700Z,6.51
2018-12-01T11:40:22.467Z,6.57
2018-12-01T11:42:50.965Z,6.80
2018-12-01T11:45:20.408Z,6.87
2018-12-01T11:47:50.215Z,6.97
2018-12-01T11:50:19.547Z,7.07
2018-12-01T11:52:49.897Z,6.91
2018-12-01T11:55:19.947Z,6.90
2018-12-01T11:57:49.496Z,6.90
2018-12-01T12:00:20.053Z,7.02
2018-12-01T12:02:49.625Z,7.10
2018-12-01T12:05:18.317Z,7.21
2018-12-01T12:07:58.221Z,7.17
2018-12-01T12:10:26.750Z,7.31
2018-12-01T12:12:55.515Z,7.15
2018-12-01T12:15:24.905Z,7.15
2018-12-01T12:17:55.825Z,7.21
2018-12-01T12:20:24.491Z,7.14
2018-12-01T12:22:53.109Z,7.17
2018-12-01T12:25:21.712Z,7.14
2018-12-01T12:27:50.327Z,7.18
2018-12-01T12:30:19.787Z,7.27
2018-12-01T12:32:48.579Z,7.35
2018-12-01T12:35:17.937Z,7.34
2018-12-01T12:37:47.356Z,7.34
2018-12-01T12:40:20.828Z,7.47
2018-12-01T12:42:50.438Z,7.53
2018-12-01T12:45:19.154Z,7.52
2018-12-01T12:47:48.607Z,7.54
2018-12-01T12:50:18.185Z,7.76
2018-12-01T12:52:49.497Z,7.71
2018-12-01T12:55:19.997Z,7.51
2018-12-01T12:57:48.617Z,7.65
2018-12-01T13:00:20.098Z,7.61
2018-12-01T13:02:50.907Z,7.61
2018-12-01T13:05:21.803Z,7.66
2018-12-01T13:07:51.232Z,7.57
2018-12-01T13:10:21.083Z,7.60
2018-12-01T13:12:51.840Z,7.60
2018-12-01T13:15:19.587Z,7.59
2018-12-01T13:17:49.182Z,7.50
2018-12-01T13:20:19.675Z,7.69
2018-12-01T13:22:50.290Z,7.56
2018-12-01T13:25:18.843Z,7.58
2018-12-01T13:27:52.906Z,7.62
2018-12-01T13:30:23.242Z,7.61
2018-12-01T13:32:51.838Z,7.55
2018-12-01T13:35:20.463Z,7.48
2018-12-01T13:37:49.153Z,7.39
2018-12-01T13:40:17.880Z,7.34
2018-12-01T13:42:47.390Z,7.27
2018-12-01T13:45:17.026Z,7.23
2018-12-01T13:47:48.246Z,7.19
2018-12-01T13:50:18.667Z,7.02
2018-12-01T13:52:52.609Z,7.09
2018-12-01T13:55:21.244Z,6.99
2018-12-01T13:57:49.807Z,7.00
2018-12-01T14:00:21.571Z,7.06
2018-12-01T14:02:51.000Z,7.15
2018-12-01T14:05:19.877Z,7.04
2018-12-01T14:07:48.430Z,7.02
2018-12-01T14:10:19.152Z,6.98
2018-12-01T14:12:48.992Z,6.92
2018-12-01T14:15:22.651Z,6.92
2018-12-01T14:17:51.297Z,6.83
2018-12-01T14:20:20.306Z,6.89
2018-12-01T14:22:50.675Z,6.75
2018-12-01T14:25:21.144Z,6.72
2018-12-01T14:27:59.009Z,6.81
2018-12-01T14:30:27.611Z,6.75
2018-12-01T14:32:57.092Z,6.80
2018-12-01T14:35:28.874Z,6.77
2018-12-01T14:37:59.722Z,6.58
2018-12-01T14:40:28.271Z,6.56
2018-12-01T14:42:57.770Z,6.52
2018-12-01T14:45:26.330Z,6.43
2018-12-01T14:47:54.870Z,6.47
2018-12-01T14:50:24.445Z,6.55
2018-12-01T14:52:53.049Z,6.56
2018-12-01T14:55:21.613Z,6.56
2018-12-01T14:57:50.257Z,6.59
2018-12-01T15:00:24.688Z,6.51
2018-12-01T15:02:55.337Z,6.48
2018-12-01T15:05:24.586Z,6.47
2018-12-01T15:07:53.217Z,6.39
2018-12-01T15:10:24.108Z,6.42
2018-12-01T15:12:52.962Z,6.39
2018-12-01T15:15:28.316Z,6.38
2018-12-01T15:17:57.178Z,6.32
2018-12-01T15:20:26.746Z,6.27
2018-12-01T15:22:57.572Z,6.14
2018-12-01T15:25:28.314Z,6.11
2018-12-01T15:27:57.076Z,6.32
2018-12-01T15:30:28.210Z,6.22
2018-12-01T15:33:07.321Z,6.12
2018-12-01T15:35:36.821Z,6.07
2018-12-01T15:38:07.580Z,6.03
2018-12-01T15:40:37.088Z,5.98
2018-12-01T15:43:06.860Z,5.95
2018-12-01T15:45:36.595Z,5.87
2018-12-01T15:48:06.750Z,5.92
2018-12-01T15:50:35.354Z,5.79
2018-12-01T15:53:04.064Z,5.76
2018-12-01T15:55:32.636Z,5.77
2018-12-01T15:58:01.305Z,5.81
2018-12-01T16:00:30.840Z,5.91
2018-12-01T16:02:59.542Z,5.83
2018-12-01T16:05:28.164Z,5.87
2018-12-01T16:07:58.639Z,5.89
2018-12-01T16:10:27.460Z,5.89
2018-12-01T16:13:02.863Z,5.77
2018-12-01T16:15:35.860Z,5.81
2018-12-01T16:18:06.103Z,5.78
2018-12-01T16:20:34.904Z,5.76
2018-12-01T16:23:03.676Z,5.75
2018-12-01T16:25:32.363Z,5.75
2018-12-01T16:28:01.890Z,5.74
2018-12-01T16:30:32.909Z,5.58
2018-12-01T16:33:05.541Z,5.56
2018-12-01T16:35:35.174Z,5.43
2018-12-01T16:38:05.311Z,5.35
2018-12-01T16:41:41.179Z,5.32
2018-12-01T16:44:09.917Z,5.11
2018-12-01T16:46:38.918Z,5.04
2018-12-01T16:49:07.638Z,5.00
2018-12-01T16:51:37.217Z,4.88
2018-12-01T16:54:06.690Z,4.80
2018-12-01T16:56:35.265Z,4.76
2018-12-01T16:59:03.850Z,4.67
2018-12-01T17:01:32.399Z,4.70
2018-12-01T17:04:01.196Z,4.56
2018-12-01T17:06:30.111Z,4.49
2018-12-01T17:08:59.536Z,4.40
2018-12-01T17:11:28.126Z,4.35
2018-12-01T17:13:57.572Z,4.30
2018-12-01T17:16:26.194Z,4.26
2018-12-01T17:18:55.764Z,4.16
2018-12-01T17:21:24.533Z,4.12
2018-12-01T17:23:53.113Z,4.10
2018-12-01T17:26:22.563Z,4.03
2018-12-01T17:28:51.961Z,4.04
2018-12-01T17:31:20.562Z,3.97
2018-12-01T17:33:50.131Z,3.91
2018-12-01T17:36:18.734Z,3.95
2018-12-01T17:38:47.318Z,3.89
2018-12-01T17:41:18.257Z,3.83
2018-12-01T17:43:49.771Z,3.81
2018-12-01T17:46:18.561Z,3.81
2018-12-01T17:48:47.181Z,3.80
2018-12-01T17:51:15.791Z,3.81
2018-12-01T17:53:49.225Z,3.77
2018-12-01T17:56:17.824Z,3.78
2018-12-01T17:58:46.429Z,3.76
2018-12-01T18:01:16.049Z,3.68
2018-12-01T18:03:45.664Z,3.63
2018-12-01T18:06:16.014Z,3.59
2018-12-01T18:08:45.328Z,3.63
2018-12-01T18:11:15.219Z,3.57
2018-12-01T18:13:45.359Z,3.60
2018-12-01T18:16:14.734Z,3.62
2018-12-01T18:18:43.662Z,3.64
2018-12-01T18:21:13.775Z,3.57
2018-12-01T18:23:44.818Z,3.55
2018-12-01T18:26:14.689Z,3.50
2018-12-01T18:28:46.870Z,3.53
2018-12-01T18:31:20.159Z,3.43
2018-12-01T18:33:52.952Z,3.38
2018-12-01T18:36:22.598Z,3.42
2018-12-01T18:38:52.129Z,3.39
2018-12-01T18:41:21.502Z,3.38
2018-12-01T18:43:51.015Z,3.41
2018-12-01T18:46:20.148Z,3.35
2018-12-01T18:48:49.537Z,3.33
2018-12-01T18:51:18.129Z,3.29
2018-12-01T18:53:46.718Z,3.28
2018-12-01T18:56:16.208Z,3.28
2018-12-01T18:58:45.809Z,3.32
2018-12-01T19:01:15.203Z,3.29
2018-12-01T19:03:44.471Z,3.29
2018-12-01T19:06:14.033Z,3.25
2018-12-01T19:08:42.570Z,3.31
2018-12-01T19:11:11.558Z,3.33
2018-12-01T19:13:40.099Z,3.33
2018-12-01T19:16:09.711Z,3.33
2018-12-01T19:18:38.256Z,3.28
2018-12-01T19:21:07.844Z,3.31
2018-12-01T19:23:36.369Z,3.40
2018-12-01T19:26:06.610Z,3.33
2018-12-01T19:28:35.339Z,3.28
2018-12-01T19:31:04.536Z,3.22
2018-12-01T19:33:33.271Z,3.15
2018-12-01T19:36:02.070Z,3.17
2018-12-01T19:38:31.185Z,3.13
2018-12-01T19:41:01.380Z,3.23
2018-12-01T19:43:30.135Z,3.21
2018-12-01T19:45:58.725Z,3.19
2018-12-01T19:48:28.401Z,3.15
2018-12-01T19:50:57.400Z,3.11
2018-12-01T19:53:26.084Z,3.13
2018-12-01T19:55:55.147Z,3.14
2018-12-01T19:58:29.845Z,3.14
2018-12-01T20:00:59.517Z,3.11
2018-12-01T20:03:29.722Z,3.08
2018-12-01T20:05:58.586Z,3.12
2018-12-01T20:08:27.275Z,3.09
2018-12-01T20:10:59.463Z,3.07
2018-12-01T20:13:37.670Z,3.07
2018-12-01T20:16:29.206Z,3.07
2018-12-01T20:18:58.890Z,3.03
2018-12-01T20:21:27.532Z,3.05
2018-12-01T20:23:56.154Z,3.05
2018-12-01T20:26:26.110Z,3.04
2018-12-01T20:28:55.749Z,3.02
2018-12-01T20:31:25.350Z,3.02
2018-12-01T20:33:55.620Z,3.09
2018-12-01T20:36:28.273Z,3.18
2018-12-01T20:39:32.090Z,3.20
2018-12-01T20:42:00.657Z,3.17
2018-12-01T20:44:30.250Z,3.21
2018-12-01T20:46:58.936Z,3.16
2018-12-01T20:49:28.865Z,3.20
2018-12-01T20:51:57.388Z,3.12
2018-12-01T20:54:35.430Z,3.08
2018-12-01T20:57:09.179Z,3.09
2018-12-01T20:59:38.624Z,3.04
2018-12-01T21:02:07.325Z,2.94
2018-12-01T21:04:35.867Z,2.99
2018-12-01T21:07:04.437Z,2.88
2018-12-01T21:09:32.990Z,2.87
2018-12-01T21:12:02.603Z,2.88
2018-12-01T21:14:31.466Z,2.85
2018-12-01T21:17:00.250Z,2.93
2018-12-01T21:19:28.791Z,3.00
2018-12-01T21:21:57.372Z,3.09
2018-12-01T21:24:26.265Z,3.16
2018-12-01T21:26:54.830Z,3.14
2018-12-01T21:29:24.268Z,3.23
2018-12-01T21:31:53.810Z,3.16
2018-12-01T21:34:22.533Z,3.24
2018-12-01T21:36:51.131Z,3.24
2018-12-01T21:39:20.972Z,3.15
2018-12-01T21:41:51.010Z,3.11
2018-12-01T21:44:20.676Z,3.01
2018-12-01T21:46:49.389Z,2.94
2018-12-01T21:49:18.708Z,2.95
2018-12-01T21:51:48.446Z,2.91
2018-12-01T21:54:18.037Z,2.95
2018-12-01T21:56:47.260Z,2.96
2018-12-01T21:59:15.995Z,2.94
2018-12-01T22:01:45.368Z,2.94
2018-12-01T22:04:14.686Z,2.96
2018-12-01T22:06:43.543Z,2.89
2018-12-01T22:09:14.299Z,2.85
2018-12-01T22:11:44.469Z,2.81
2018-12-01T22:14:13.691Z,2.80
2018-12-01T22:16:45.380Z,2.81
2018-12-01T22:19:15.594Z,2.72
2018-12-01T22:21:45.671Z,2.74
2018-12-01T22:24:14.574Z,2.70
2018-12-01T22:26:44.629Z,2.71
2018-12-01T22:29:13.773Z,2.73
2018-12-01T22:31:43.572Z,2.77
2018-12-01T22:34:12.450Z,2.81
2018-12-01T22:36:41.049Z,2.78
2018-12-01T22:39:11.205Z,2.74
2018-12-01T22:41:40.912Z,2.74
2018-12-01T22:44:09.729Z,2.75
2018-12-01T22:46:38.333Z,2.78
2018-12-01T22:49:08.040Z,2.83
2018-12-01T22:51:36.574Z,2.72
2018-12-01T22:54:05.728Z,2.66
2018-12-01T22:56:34.545Z,2.64
2018-12-01T22:59:03.217Z,2.64
2018-12-01T23:01:31.921Z,2.69
2018-12-01T23:04:00.444Z,2.72
2018-12-01T23:06:29.291Z,2.67
2018-12-01T23:08:57.811Z,2.71
2018-12-01T23:11:26.288Z,2.72
2018-12-01T23:13:54.877Z,2.68
2018-12-01T23:16:23.470Z,2.69
2018-12-01T23:18:52.241Z,2.70
2018-12-01T23:21:20.891Z,2.73
2018-12-01T23:23:49.567Z,2.71
2018-12-01T23:26:18.161Z,2.73
2018-12-01T23:28:46.702Z,2.65
2018-12-01T23:31:16.413Z,2.72
2018-12-01T23:33:45.781Z,2.65
2018-12-01T23:36:15.933Z,2.76
2018-12-01T23:38:45.380Z,2.73
2018-12-01T23:41:14.587Z,2.73
2018-12-01T23:43:44.477Z,2.73
2018-12-01T23:46:14.282Z,2.79
2018-12-01T23:48:44.533Z,2.91
2018-12-01T23:51:13.882Z,2.79
2018-12-01T23:53:42.550Z,2.81
2018-12-01T23:56:12.575Z,2.76
2018-12-01T23:58:41.985Z,2.77
